createdAt,value
2023-02-09T00:09:06.270Z,25.29296875
2023-02-09T00:19:06.190Z,23.8037109375
2023-02-09T00:29:06.115Z,22.39990234375
2023-02-09T00:39:06.087Z,24.30419921875
2023-02-09T00:49:05.986Z,24.69482421875
2023-02-09T00:59:05.903Z,23.30322265625
2023-02-09T01:09:05.872Z,23.40087890625
2023-02-09T01:19:05.809Z,23.9990234375
2023-02-09T01:29:05.709Z,23.9013671875
2023-02-09T01:39:05.641Z,23.59619140625
2023-02-09T01:49:05.575Z,23.40087890625
2023-02-09T01:59:05.513Z,27.392578125
2023-02-09T02:09:05.428Z,26.2939453125
2023-02-09T02:19:05.345Z,24.8046875
2023-02-09T02:29:05.418Z,25.29296875
2023-02-09T02:39:05.240Z,22.802734375
2023-02-09T02:49:05.122Z,24.1943359375
2023-02-09T02:59:05.195Z,22.900390625
2023-02-09T03:09:04.997Z,23.30322265625
2023-02-09T03:19:04.922Z,23.59619140625
2023-02-09T03:29:04.855Z,22.59521484375
2023-02-09T03:39:04.850Z,22.802734375
2023-02-09T03:49:04.703Z,22.30224609375
2023-02-09T03:59:04.625Z,21.7041015625
2023-02-09T04:09:04.593Z,20.80078125
2023-02-09T04:19:04.589Z,19.7998046875
2023-02-09T04:29:04.434Z,19.7998046875
2023-02-09T04:39:04.446Z,19.6044921875
2023-02-09T04:49:04.310Z,19.29931640625
2023-02-09T04:59:04.197Z,19.10400390625
2023-02-09T05:09:04.148Z,18.798828125
2023-02-09T05:19:04.091Z,18.994140625
2023-02-09T05:29:04.021Z,18.701171875
2023-02-09T05:39:03.918Z,18.701171875
2023-02-09T05:49:03.867Z,18.39599609375
2023-02-09T05:59:04.772Z,18.603515625
2023-02-09T06:09:03.723Z,18.20068359375
2023-02-09T06:19:03.691Z,18.20068359375
2023-02-09T06:29:03.631Z,17.8955078125
2023-02-09T06:39:03.591Z,17.7978515625
2023-02-09T06:49:03.433Z,17.6025390625
2023-02-09T06:59:03.490Z,17.29736328125
2023-02-09T07:09:03.347Z,16.89453125
2023-02-09T07:19:03.227Z,16.89453125
2023-02-09T07:29:03.148Z,16.69921875
2023-02-09T07:39:03.049Z,16.50390625
2023-02-09T07:49:02.988Z,16.29638671875
2023-02-09T07:59:03.022Z,16.19873046875
2023-02-09T08:09:02.870Z,16.00341796875
2023-02-09T08:19:03.005Z,16.00341796875
2023-02-09T08:29:02.714Z,15.7958984375
2023-02-09T08:39:02.660Z,15.7958984375
2023-02-09T08:49:02.594Z,15.7958984375
2023-02-09T08:59:02.549Z,15.90576171875
2023-02-09T09:09:02.476Z,15.7958984375
2023-02-09T09:19:02.372Z,15.7958984375
2023-02-09T09:29:02.351Z,15.6005859375
2023-02-09T09:39:02.297Z,15.29541015625
2023-02-09T09:49:02.160Z,15.5029296875
2023-02-09T09:59:02.087Z,15.29541015625
2023-02-09T10:09:02.076Z,15.29541015625
2023-02-09T10:19:02.095Z,15.19775390625
2023-02-09T10:29:01.903Z,15.29541015625
2023-02-09T10:39:01.880Z,15.10009765625
2023-02-09T10:49:01.760Z,15.29541015625
2023-02-09T10:59:01.650Z,15.00244140625
2023-02-09T11:09:01.619Z,14.599609375
2023-02-09T11:19:01.543Z,14.501953125
2023-02-09T11:29:01.484Z,14.29443359375
2023-02-09T11:39:01.421Z,14.19677734375
2023-02-09T11:49:01.338Z,14.09912109375
2023-02-09T11:59:01.334Z,13.6962890625
2023-02-09T12:09:01.166Z,13.5986328125
2023-02-09T12:19:01.107Z,13.4033203125
2023-02-09T12:29:01.035Z,13.19580078125
2023-02-09T12:39:04.877Z,13.19580078125
2023-02-09T12:49:01.020Z,13.09814453125
2023-02-09T12:59:00.882Z,12.90283203125
2023-02-09T13:09:00.768Z,12.6953125
2023-02-09T13:19:00.730Z,12.90283203125
2023-02-09T13:29:08.603Z,13.09814453125
2023-02-09T13:39:00.581Z,13.00048828125
2023-02-09T13:49:02.722Z,12.80517578125
2023-02-09T13:59:00.446Z,12.80517578125
2023-02-09T14:09:00.330Z,12.90283203125
2023-02-09T14:19:00.271Z,13.09814453125
2023-02-09T14:29:00.233Z,13.5986328125
2023-02-09T14:39:00.215Z,14.19677734375
2023-02-09T14:49:00.208Z,14.599609375
2023-02-09T14:59:00.032Z,14.599609375
2023-02-09T15:08:59.911Z,14.697265625
2023-02-09T15:18:59.861Z,14.599609375
2023-02-09T15:28:59.805Z,14.599609375
2023-02-09T15:38:59.707Z,14.697265625
2023-02-09T15:48:59.739Z,14.697265625
2023-02-09T15:58:59.573Z,14.697265625
2023-02-09T16:08:59.522Z,14.794921875
2023-02-09T16:18:59.455Z,14.501953125
2023-02-09T16:28:59.481Z,14.19677734375
2023-02-09T16:38:59.298Z,13.90380859375
2023-02-09T16:48:59.319Z,13.6962890625
2023-02-09T16:58:59.184Z,13.5986328125
2023-02-09T17:08:59.079Z,13.6962890625
2023-02-09T17:18:59.009Z,13.4033203125
2023-02-09T17:28:58.961Z,13.19580078125
2023-02-09T17:38:58.922Z,13.09814453125
2023-02-09T17:48:58.822Z,13.09814453125
2023-02-09T17:58:58.758Z,12.80517578125
2023-02-09T18:08:58.685Z,12.80517578125
2023-02-09T18:18:58.642Z,12.80517578125
2023-02-09T18:28:58.507Z,12.6953125
2023-02-09T18:38:58.482Z,12.80517578125
2023-02-09T18:48:58.380Z,12.80517578125
2023-02-09T18:58:58.374Z,12.90283203125
2023-02-09T19:08:58.268Z,13.00048828125
2023-02-09T19:18:58.194Z,13.00048828125
2023-02-09T19:28:58.113Z,13.3056640625
2023-02-09T19:38:58.071Z,13.6962890625
2023-02-09T19:48:57.986Z,14.29443359375
2023-02-09T19:58:57.933Z,14.501953125
2023-02-09T20:08:57.945Z,14.697265625
2023-02-09T20:18:57.834Z,15.90576171875
2023-02-09T20:28:57.705Z,16.6015625
2023-02-09T20:38:57.621Z,16.796875
2023-02-09T20:48:57.568Z,17.19970703125
2023-02-09T20:58:57.489Z,17.7001953125
2023-02-09T21:08:57.447Z,17.8955078125
2023-02-09T21:18:57.330Z,18.701171875
2023-02-09T21:28:57.435Z,19.20166015625
2023-02-09T21:38:57.213Z,20.20263671875
2023-02-09T21:48:57.146Z,20.80078125
2023-02-09T21:58:57.065Z,20.703125
2023-02-09T22:08:56.990Z,21.39892578125
2023-02-09T22:18:57.042Z,21.20361328125
2023-02-09T22:28:56.848Z,21.8017578125
2023-02-09T22:38:56.778Z,22.20458984375
2023-02-09T22:48:56.700Z,21.39892578125
2023-02-09T22:58:56.638Z,23.30322265625
2023-02-09T23:08:56.551Z,23.8037109375
2023-02-09T23:18:56.606Z,23.40087890625
2023-02-09T23:28:57.202Z,24.90234375
2023-02-09T23:38:56.381Z,25.29296875
2023-02-09T23:48:56.366Z,24.69482421875
2023-02-09T23:58:56.215Z,22.49755859375
